Time;durP1;ratioP1;P1;durP2;ratioP2;P2;SDS_P1;SDS_P2;PMS_P1;PMS_P2;Temp;Humidity;BMP_temperature;BMP_pressure;BME280_temperature;BME280_humidity;BME280_pressure;Samples;Min_cycle;Max_cycle;Signal;HPM_P1;HPM_P2
2020/12/22 00:01:28;;;;;;;13.90;9.90;;;5.20;93.00;12.80;100159.00;;;;5012428;28;20207;-68
2020/12/22 00:03:54;;;;;;;13.70;10.70;;;5.20;93.00;12.90;100152.00;;;;5029480;28;20421;-68
2020/12/22 00:06:23;;;;;;;13.80;10.10;;;5.20;93.00;13.00;100161.00;;;;5029136;28;20713;-68
2020/12/22 00:08:50;;;;;;;15.77;11.70;;;5.20;93.00;12.90;100171.00;;;;5012895;28;20574;-68
2020/12/22 00:11:17;;;;;;;15.10;10.13;;;5.20;93.00;12.80;100171.00;;;;5028436;28;20705;-68
2020/12/22 00:13:42;;;;;;;14.80;10.70;;;5.10;92.90;12.60;100161.00;;;;5029308;28;20218;-69
2020/12/22 00:16:08;;;;;;;14.03;10.90;;;5.20;93.00;12.70;100176.00;;;;5028927;28;20187;-67
2020/12/22 00:18:34;;;;;;;13.27;9.50;;;5.10;93.00;12.70;100145.00;;;;5012315;28;20187;-68
2020/12/22 00:20:59;;;;;;;11.67;8.70;;;5.20;93.40;12.80;100176.00;;;;5028460;28;20232;-68
2020/12/22 00:23:25;;;;;;;11.93;8.47;;;5.20;93.00;12.90;100174.00;;;;5028624;28;20185;-68
2020/12/22 00:25:51;;;;;;;13.33;9.30;;;5.20;93.00;13.00;100166.00;;;;5029762;28;20222;-68
2020/12/22 00:28:17;;;;;;;13.45;10.13;;;5.20;93.00;13.00;100172.00;;;;5028485;28;20207;-68
2020/12/22 00:30:43;;;;;;;14.00;10.53;;;5.20;93.40;12.90;100180.00;;;;5029428;28;20732;-68
2020/12/22 00:33:09;;;;;;;13.45;9.52;;;5.10;93.00;12.70;100170.00;;;;5028044;28;20214;-68
2020/12/22 00:35:35;;;;;;;11.63;10.13;;;5.20;93.00;12.70;100171.00;;;;5028406;28;20226;-67
2020/12/22 00:38:01;;;;;;;13.20;9.80;;;5.10;93.00;12.90;100184.00;;;;5028876;28;20213;-68
2020/12/22 00:40:27;;;;;;;14.07;9.77;;;5.10;93.00;12.70;100189.00;;;;5028755;28;20820;-68
2020/12/22 00:42:53;;;;;;;15.70;11.55;;;5.20;93.40;12.90;100181.00;;;;5028494;28;20203;-68
2020/12/22 00:45:20;;;;;;;14.37;10.13;;;5.20;93.10;13.00;100197.00;;;;5011862;28;20691;-68
2020/12/22 00:47:46;;;;;;;12.98;11.52;;;5.20;93.10;12.90;100198.00;;;;5028822;28;20461;-68
2020/12/22 00:50:11;;;;;;;14.10;10.90;;;5.20;93.10;12.80;100192.00;;;;5029135;28;20549;-68
2020/12/22 00:52:37;;;;;;;15.03;11.27;;;5.20;93.10;13.00;100189.00;;;;5028007;28;20677;-68
2020/12/22 00:55:04;;;;;;;16.30;11.77;;;5.10;93.00;12.90;100191.00;;;;5030315;28;20191;-68
2020/12/22 00:57:29;;;;;;;13.23;10.05;;;5.20;93.10;13.00;100190.00;;;;5032200;28;20202;-68
2020/12/22 00:59:55;;;;;;;16.13;10.83;;;5.10;93.00;12.90;100184.00;;;;5032397;28;20232;-68
2020/12/22 01:02:21;;;;;;;14.10;10.10;;;5.10;93.00;13.00;100197.00;;;;5032047;28;20632;-68
2020/12/22 01:04:47;;;;;;;13.10;10.47;;;5.10;93.00;12.60;100203.00;;;;5032002;28;20349;-68
2020/12/22 01:07:13;;;;;;;14.95;11.32;;;5.20;93.10;12.80;100197.00;;;;5031630;28;20202;-68
2020/12/22 01:09:39;;;;;;;14.17;10.60;;;5.20;93.10;12.90;100196.00;;;;5033607;28;20233;-69
2020/12/22 01:12:05;;;;;;;14.57;10.33;;;5.10;93.00;12.90;100185.00;;;;5033470;28;20202;-68
2020/12/22 01:14:31;;;;;;;14.15;10.85;;;5.20;93.10;12.70;100192.00;;;;5015234;28;20568;-68
2020/12/22 01:16:57;;;;;;;15.90;9.87;;;5.20;93.10;12.80;100183.00;;;;5032345;28;20203;-68
2020/12/22 01:19:22;;;;;;;12.53;10.57;;;5.20;93.10;12.90;100172.00;;;;5032336;28;20175;-68
2020/12/22 01:21:52;;;;;;;15.27;12.23;;;5.10;93.10;12.70;100172.00;;;;5031707;28;20234;-68
2020/12/22 01:24:19;;;;;;;13.38;10.10;;;5.10;93.10;12.80;100186.00;;;;5031984;28;20175;-69
2020/12/22 01:26:44;;;;;;;15.90;10.82;;;5.10;93.10;12.80;100169.00;;;;5032246;28;20195;-68
2020/12/22 01:29:10;;;;;;;14.67;10.80;;;5.10;93.50;13.00;100154.00;;;;5031624;28;20201;-69
2020/12/22 01:31:35;;;;;;;16.23;10.93;;;5.10;93.10;12.80;100144.00;;;;5033100;28;20611;-68
2020/12/22 01:34:01;;;;;;;17.07;12.23;;;5.20;93.20;12.70;100145.00;;;;5032268;28;20190;-68
2020/12/22 01:36:27;;;;;;;15.40;11.20;;;5.10;93.10;12.70;100119.00;;;;5034412;28;20758;-68
2020/12/22 01:38:53;;;;;;;14.17;11.00;;;5.10;93.10;12.70;100125.00;;;;5015079;28;20746;-68
2020/12/22 01:41:18;;;;;;;16.03;11.23;;;5.10;93.10;12.80;100111.00;;;;5047490;28;20507;-68
2020/12/22 01:44:16;;;;;;;15.40;10.57;;;5.10;93.10;12.90;100115.00;;;;5046218;28;20219;-68
2020/12/22 01:46:46;;;;;;;14.70;10.05;;;5.10;93.10;12.80;100127.00;;;;5031207;28;20219;-68
2020/12/22 01:49:26;;;;;;;15.02;10.52;;;5.10;93.10;12.80;100126.00;;;;5030117;28;20258;-69
2020/12/22 01:51:56;;;;;;;16.05;10.63;;;5.10;93.10;12.90;100136.00;;;;5031537;28;20201;-69
2020/12/22 01:54:22;;;;;;;15.02;10.82;;;5.10;93.10;12.80;100130.00;;;;5047749;28;20179;-68
2020/12/22 01:56:48;;;;;;;14.85;10.70;;;5.10;93.10;12.90;100145.00;;;;5031646;28;20429;-69
2020/12/22 01:59:19;;;;;;;15.33;10.50;;;5.10;93.10;12.70;100143.00;;;;5014373;28;20290;-69
2020/12/22 02:01:45;;;;;;;13.63;10.73;;;5.20;93.10;12.70;100131.00;;;;5031585;28;20230;-69
2020/12/22 02:04:11;;;;;;;15.55;11.30;;;5.10;93.40;12.70;100123.00;;;;5030694;28;20261;-68
2020/12/22 02:06:37;;;;;;;14.83;11.00;;;5.20;93.10;12.90;100121.00;;;;5046483;28;20796;-68
2020/12/22 02:09:06;;;;;;;14.70;11.03;;;5.20;93.10;12.80;100117.00;;;;5030965;28;20412;-69
2020/12/22 02:11:33;;;;;;;15.05;12.10;;;5.20;93.10;12.70;100112.00;;;;5032189;28;20531;-68
2020/12/22 02:13:59;;;;;;;15.73;11.45;;;5.20;93.10;12.70;100104.00;;;;5014190;28;20269;-68
2020/12/22 02:16:25;;;;;;;13.13;10.45;;;5.10;93.00;12.80;100102.00;;;;5030821;28;20681;-67
2020/12/22 02:18:51;;;;;;;14.80;11.30;;;5.10;93.00;12.70;100110.00;;;;5031341;28;20273;-69
2020/12/22 02:21:18;;;;;;;15.65;11.77;;;5.10;93.00;12.80;100096.00;;;;5030246;28;20463;-69
2020/12/22 02:23:44;;;;;;;15.75;12.20;;;5.10;93.00;12.80;100105.00;;;;5047037;28;20175;-68
2020/12/22 02:26:10;;;;;;;16.00;11.02;;;5.10;93.00;12.90;100102.00;;;;5030923;28;20210;-68
2020/12/22 02:28:36;;;;;;;12.60;10.30;;;5.10;93.10;12.80;100103.00;;;;5030428;28;20189;-68
2020/12/22 02:31:02;;;;;;;13.60;10.63;;;5.10;93.00;12.50;100098.00;;;;5030640;28;20186;-68
2020/12/22 02:33:28;;;;;;;13.55;11.05;;;5.20;93.10;12.80;100094.00;;;;5030555;28;20470;-68
2020/12/22 02:35:54;;;;;;;15.75;11.38;;;5.10;93.10;12.90;100092.00;;;;5046845;28;20712;-67
2020/12/22 02:38:21;;;;;;;13.23;10.07;;;5.10;93.10;12.90;100099.00;;;;5013496;28;20211;-68
2020/12/22 02:40:47;;;;;;;14.68;10.38;;;5.20;93.10;12.60;100087.00;;;;5047282;28;20404;-68
2020/12/22 02:43:13;;;;;;;14.77;10.00;;;5.20;93.10;12.70;100093.00;;;;5047121;28;20224;-68
2020/12/22 02:45:41;;;;;;;12.40;9.60;;;5.20;93.10;12.90;100086.00;;;;5046561;28;20218;-68
2020/12/22 02:48:10;;;;;;;14.73;11.40;;;5.20;93.10;12.80;100093.00;;;;5046673;28;20195;-68
2020/12/22 02:50:36;;;;;;;13.00;9.98;;;5.10;93.00;12.90;100085.00;;;;5047084;28;20225;-68
2020/12/22 02:53:02;;;;;;;13.50;11.10;;;5.20;93.10;12.80;100096.00;;;;5030027;28;20210;-69
2020/12/22 02:55:28;;;;;;;12.35;10.20;;;5.20;93.10;12.80;100096.00;;;;5030352;28;20774;-68
2020/12/22 02:57:54;;;;;;;14.07;11.10;;;5.20;93.10;12.60;100100.00;;;;5013975;28;20241;-68
2020/12/22 03:00:20;;;;;;;13.20;9.87;;;5.20;93.10;12.90;100100.00;;;;5046361;28;20277;-68
2020/12/22 03:02:45;;;;;;;13.90;11.73;;;5.20;93.10;12.80;100100.00;;;;5046846;28;20207;-68
2020/12/22 03:05:11;;;;;;;15.13;11.23;;;5.20;93.10;12.70;100096.00;;;;5029667;28;20564;-68
2020/12/22 03:07:37;;;;;;;13.47;10.10;;;5.10;93.10;12.80;100088.00;;;;5031545;28;20637;-67
2020/12/22 03:10:09;;;;;;;15.30;12.03;;;5.20;93.20;12.80;100080.00;;;;5029864;28;20448;-69
2020/12/22 03:12:34;;;;;;;12.48;9.82;;;5.20;93.20;12.80;100083.00;;;;5046751;28;20918;-68
2020/12/22 03:15:01;;;;;;;12.47;10.17;;;5.10;93.10;12.90;100080.00;;;;5029996;28;20183;-69
2020/12/22 03:17:27;;;;;;;14.45;10.77;;;5.10;93.10;12.80;100076.00;;;;5029581;28;20206;-68
2020/12/22 03:19:53;;;;;;;13.30;10.82;;;5.20;93.60;12.60;100084.00;;;;5046050;28;20183;-68
2020/12/22 03:22:18;;;;;;;15.40;10.70;;;5.10;93.20;12.80;100068.00;;;;5031390;28;20256;-68
2020/12/22 03:24:44;;;;;;;15.10;10.93;;;5.10;93.50;13.00;100080.00;;;;5012719;28;20211;-67
2020/12/22 03:27:10;;;;;;;11.63;9.03;;;5.10;93.50;12.80;100055.00;;;;5029430;28;20696;-68
2020/12/22 03:29:35;;;;;;;15.50;11.60;;;5.10;93.20;12.90;100043.00;;;;5029544;28;20291;-68
2020/12/22 03:32:01;;;;;;;14.30;11.50;;;5.10;93.20;12.90;100052.00;;;;5029584;28;20202;-68
2020/12/22 03:34:27;;;;;;;13.83;10.83;;;5.10;93.20;12.70;100038.00;;;;5045767;28;20369;-68
2020/12/22 03:36:52;;;;;;;12.87;9.90;;;5.10;93.20;12.90;100053.00;;;;5030593;28;20227;-68
2020/12/22 03:39:19;;;;;;;16.27;12.40;;;5.10;93.20;12.70;100052.00;;;;5029250;28;20210;-68
2020/12/22 03:41:44;;;;;;;14.63;11.07;;;5.10;93.20;12.90;100042.00;;;;5045594;28;20209;-67
2020/12/22 03:44:11;;;;;;;13.83;10.70;;;5.10;93.60;12.80;100050.00;;;;5029270;28;20183;-68
2020/12/22 03:46:38;;;;;;;13.23;9.38;;;5.10;93.20;12.80;100050.00;;;;5029408;28;20224;-67
2020/12/22 03:49:04;;;;;;;15.48;10.48;;;5.10;93.20;12.80;100048.00;;;;5045899;28;20187;-69
2020/12/22 03:51:30;;;;;;;13.53;10.10;;;5.20;93.30;12.90;100036.00;;;;5028634;28;20209;-67
2020/12/22 03:53:56;;;;;;;15.82;12.80;;;5.20;93.30;12.80;100040.00;;;;5029429;28;20646;-67
2020/12/22 03:56:21;;;;;;;16.80;10.60;;;5.10;93.20;12.90;100047.00;;;;5028269;28;20252;-68
2020/12/22 03:58:47;;;;;;;11.40;10.10;;;5.20;93.30;12.90;100038.00;;;;5029162;28;20529;-68
2020/12/22 04:01:13;;;;;;;12.80;10.60;;;5.10;93.20;13.00;100034.00;;;;5029436;28;20229;-68
2020/12/22 04:03:39;;;;;;;16.50;11.23;;;5.20;93.20;12.80;100017.00;;;;5028642;28;20277;-68
2020/12/22 04:06:17;;;;;;;13.70;10.73;;;5.10;93.20;12.80;100023.00;;;;5028644;28;20225;-68
2020/12/22 04:08:42;;;;;;;14.45;11.15;;;5.10;93.20;12.80;100029.00;;;;5029320;28;20241;-68
2020/12/22 04:11:08;;;;;;;16.67;11.67;;;5.10;93.50;12.80;100022.00;;;;5029690;28;20650;-68
2020/12/22 04:13:35;;;;;;;17.00;11.23;;;5.10;93.20;12.70;100026.00;;;;5029098;28;20179;-67
2020/12/22 04:16:05;;;;;;;14.23;10.20;;;5.10;93.20;12.80;100024.00;;;;5028402;28;20187;-67
2020/12/22 04:18:31;;;;;;;14.85;10.00;;;5.10;93.20;12.90;100026.00;;;;5045421;28;20599;-68
2020/12/22 04:21:00;;;;;;;15.40;10.80;;;5.10;93.20;12.70;100023.00;;;;5045222;28;20182;-68
2020/12/22 04:23:26;;;;;;;14.73;10.82;;;5.20;93.30;12.90;100031.00;;;;5028892;28;20183;-68
2020/12/22 04:25:52;;;;;;;14.40;10.30;;;5.20;93.30;12.80;100033.00;;;;5028285;28;20214;-68
2020/12/22 04:28:18;;;;;;;12.23;9.40;;;5.10;93.20;12.60;100029.00;;;;5028456;28;20565;-68
2020/12/22 04:30:44;;;;;;;14.17;10.90;;;5.10;93.20;12.70;100021.00;;;;5028864;28;20190;-68
2020/12/22 04:33:11;;;;;;;13.98;10.70;;;5.10;93.20;12.90;100006.00;;;;5011929;28;20297;-67
2020/12/22 04:35:37;;;;;;;15.18;11.23;;;5.10;93.20;12.80;100013.00;;;;5044800;28;20634;-68
2020/12/22 04:38:04;;;;;;;14.43;11.30;;;5.20;93.30;12.60;100023.00;;;;5045035;28;20282;-68
2020/12/22 04:40:33;;;;;;;13.20;10.45;;;5.20;93.30;12.90;100007.00;;;;5028907;28;20182;-68
2020/12/22 04:43:02;;;;;;;14.43;11.40;;;5.10;93.20;12.70;100012.00;;;;5012041;28;20210;-68
2020/12/22 04:45:28;;;;;;;13.98;10.75;;;5.10;93.20;12.80;100006.00;;;;5028249;28;20298;-68
2020/12/22 04:47:54;;;;;;;15.30;11.25;;;5.20;93.20;12.90;100005.00;;;;5028528;28;20206;-68
2020/12/22 04:50:20;;;;;;;15.90;11.15;;;5.10;93.20;12.80;100017.00;;;;5028676;28;20202;-69
2020/12/22 04:52:50;;;;;;;15.67;10.43;;;5.10;93.20;12.80;100025.00;;;;5044839;28;20206;-68
2020/12/22 04:55:15;;;;;;;15.07;10.20;;;5.10;93.20;12.70;100027.00;;;;5028143;28;20224;-68
2020/12/22 04:57:54;;;;;;;14.33;11.17;;;5.10;93.20;12.80;100034.00;;;;5028510;28;20554;-68
2020/12/22 05:00:20;;;;;;;13.40;11.13;;;5.10;93.20;12.70;100019.00;;;;5044996;28;20245;-68
2020/12/22 05:02:46;;;;;;;12.60;10.70;;;5.10;93.20;12.80;100017.00;;;;5011861;28;20210;-68
2020/12/22 05:05:12;;;;;;;14.10;8.95;;;5.10;93.20;12.80;100021.00;;;;5028166;28;20481;-68
2020/12/22 05:07:39;;;;;;;12.88;10.90;;;5.20;93.30;12.80;100018.00;;;;5027229;28;20565;-68
2020/12/22 05:10:09;;;;;;;14.05;10.57;;;5.10;93.20;12.80;100009.00;;;;5028452;28;20586;-68
2020/12/22 05:12:40;;;;;;;13.45;9.77;;;5.10;93.20;12.90;100022.00;;;;5028639;28;20759;-68
2020/12/22 05:15:07;;;;;;;13.98;10.07;;;5.10;93.30;12.90;100016.00;;;;5045638;28;20187;-68
2020/12/22 05:17:45;;;;;;;15.18;10.00;;;5.10;93.30;12.80;100015.00;;;;5044741;28;20559;-68
2020/12/22 05:20:15;;;;;;;14.18;9.80;;;5.10;93.30;12.80;99999.00;;;;5044463;28;20581;-68
2020/12/22 05:22:50;;;;;;;11.05;9.05;;;5.10;93.30;12.90;100002.00;;;;5043924;28;20195;-68
2020/12/22 05:25:16;;;;;;;13.70;11.18;;;5.10;93.20;12.70;100016.00;;;;5046202;28;20429;-68
2020/12/22 05:27:44;;;;;;;14.57;11.10;;;5.20;93.30;12.50;100010.00;;;;5044473;28;20198;-68
2020/12/22 05:30:09;;;;;;;13.00;9.45;;;5.20;93.30;12.60;100015.00;;;;5044409;28;20179;-68
2020/12/22 05:32:35;;;;;;;14.93;10.53;;;5.20;93.30;12.60;100006.00;;;;5011664;28;20221;-68
2020/12/22 05:35:01;;;;;;;15.47;11.63;;;5.10;93.30;12.80;100012.00;;;;5027700;28;20471;-68
2020/12/22 05:37:27;;;;;;;14.68;11.30;;;5.10;93.30;12.70;100007.00;;;;5043851;28;20210;-68
2020/12/22 05:39:53;;;;;;;13.50;10.70;;;5.10;93.30;12.60;100008.00;;;;5028349;28;20577;-68
2020/12/22 05:42:19;;;;;;;11.77;9.60;;;5.10;93.30;12.70;100006.00;;;;5029320;28;20199;-68
2020/12/22 05:44:51;;;;;;;15.43;11.20;;;5.20;93.40;12.60;100010.00;;;;5048241;28;20187;-68
2020/12/22 05:47:19;;;;;;;13.63;10.75;;;5.20;93.40;12.60;100005.00;;;;5030889;28;20226;-68
2020/12/22 05:49:55;;;;;;;15.02;10.55;;;5.10;93.30;12.60;99973.00;;;;5031564;28;20175;-68
2020/12/22 05:52:26;;;;;;;13.80;11.27;;;5.20;93.70;12.40;99987.00;;;;5047395;28;20688;-68
2020/12/22 05:54:53;;;;;;;14.35;10.32;;;5.10;93.30;12.60;99993.00;;;;5031943;28;20206;-68
2020/12/22 05:57:32;;;;;;;13.40;9.93;;;5.10;93.30;12.70;99988.00;;;;5014649;28;20203;-68
2020/12/22 05:59:57;;;;;;;12.77;9.32;;;5.10;93.30;12.60;99992.00;;;;5031319;28;20179;-68
2020/12/22 06:02:24;;;;;;;13.67;10.43;;;5.10;93.30;12.70;99986.00;;;;5013931;28;20695;-68
2020/12/22 06:04:52;;;;;;;14.82;9.23;;;5.20;93.40;12.70;99971.00;;;;5032745;28;20210;-68
2020/12/22 06:07:18;;;;;;;11.77;9.70;;;5.10;93.30;12.70;99979.00;;;;5032170;28;20217;-68
2020/12/22 06:09:44;;;;;;;12.93;9.73;;;5.10;93.80;12.80;99973.00;;;;5031120;28;20187;-67
2020/12/22 06:12:10;;;;;;;12.93;10.00;;;5.10;93.40;12.60;99986.00;;;;5030573;28;20444;-67
2020/12/22 06:14:35;;;;;;;12.47;9.77;;;5.10;93.40;12.70;99977.00;;;;5047704;28;20186;-68
2020/12/22 06:17:05;;;;;;;11.40;9.47;;;5.10;93.40;12.90;99973.00;;;;5047247;28;20198;-68
2020/12/22 06:19:36;;;;;;;11.23;9.35;;;5.20;93.40;12.80;99986.00;;;;5031239;28;20675;-67
2020/12/22 06:22:02;;;;;;;10.90;9.55;;;5.10;93.40;12.60;99977.00;;;;5031184;28;20269;-67
2020/12/22 06:24:28;;;;;;;12.13;8.97;;;5.10;93.40;12.80;99977.00;;;;5030829;28;20645;-69
2020/12/22 06:27:04;;;;;;;13.90;10.57;;;5.10;93.40;12.70;99977.00;;;;5031786;28;20481;-68
2020/12/22 06:29:30;;;;;;;14.90;9.68;;;5.20;93.50;12.70;99974.00;;;;5031077;28;20185;-68
2020/12/22 06:32:21;;;;;;;13.00;10.20;;;5.10;93.40;12.60;99975.00;;;;5030512;28;20445;-68
2020/12/22 06:34:47;;;;;;;10.82;9.32;;;5.10;93.40;12.70;99968.00;;;;5030856;28;20426;-68
2020/12/22 06:37:13;;;;;;;12.60;9.60;;;5.10;93.40;12.80;99959.00;;;;5030401;28;20560;-68
2020/12/22 06:39:48;;;;;;;13.50;9.97;;;5.10;93.80;12.70;99966.00;;;;5047051;28;20179;-68
2020/12/22 06:42:29;;;;;;;14.30;9.65;;;5.20;93.50;12.50;99974.00;;;;5031471;28;20202;-68
2020/12/22 06:44:55;;;;;;;11.55;8.48;;;5.10;93.40;12.70;99973.00;;;;5031545;28;20264;-68
2020/12/22 06:47:34;;;;;;;13.65;9.07;;;5.10;93.50;12.80;99973.00;;;;5047047;28;20213;-68
2020/12/22 06:50:00;;;;;;;12.82;9.65;;;5.10;93.80;12.70;99976.00;;;;5032306;28;20182;-68
2020/12/22 06:52:38;;;;;;;17.10;9.87;;;5.10;93.40;12.70;99975.00;;;;5029562;28;20585;-68
2020/12/22 06:55:08;;;;;;;11.48;9.65;;;5.10;93.40;12.60;99970.00;;;;5030399;28;20174;-68
2020/12/22 06:57:47;;;;;;;11.48;8.65;;;5.10;93.40;12.70;99968.00;;;;5030115;28;20290;-68
2020/12/22 07:00:28;;;;;;;11.55;9.45;;;5.10;93.40;12.60;99963.00;;;;5030395;28;20218;-68
2020/12/22 07:03:15;;;;;;;12.65;9.60;;;5.10;93.40;12.70;99948.00;;;;5031107;28;20205;-68
2020/12/22 07:05:45;;;;;;;13.20;10.15;;;5.10;93.40;12.60;99967.00;;;;5030061;28;20211;-68
2020/12/22 07:08:12;;;;;;;12.43;8.90;;;5.10;93.50;12.70;99977.00;;;;5029778;28;20381;-68
2020/12/22 07:10:43;;;;;;;12.10;8.77;;;5.10;93.40;12.70;99997.00;;;;5030363;28;20197;-68
2020/12/22 07:13:09;;;;;;;12.25;9.10;;;5.10;93.90;12.70;99988.00;;;;5029779;28;20289;-68
2020/12/22 07:15:46;;;;;;;11.40;8.77;;;5.10;93.50;12.80;99981.00;;;;5030188;28;20175;-69
2020/12/22 07:18:19;;;;;;;10.93;8.50;;;5.10;93.50;12.70;99950.00;;;;5029642;28;20199;-67
2020/12/22 07:20:46;;;;;;;10.82;8.43;;;5.10;93.40;12.80;99945.00;;;;5030276;28;20182;-68
2020/12/22 07:23:12;;;;;;;10.60;8.77;;;5.10;93.50;12.80;99939.00;;;;5045914;28;20709;-68
2020/12/22 07:25:39;;;;;;;11.95;9.07;;;5.10;93.50;12.60;99925.00;;;;5046612;28;20293;-69
2020/12/22 07:28:06;;;;;;;12.98;9.50;;;5.10;93.50;12.50;99916.00;;;;5045994;28;20285;-67
2020/12/22 07:30:31;;;;;;;12.65;9.95;;;5.10;93.50;12.60;99927.00;;;;5029370;28;20182;-68
2020/12/22 07:32:59;;;;;;;12.50;9.13;;;5.10;93.50;12.60;99939.00;;;;5013161;28;20202;-68
2020/12/22 07:35:26;;;;;;;11.93;9.90;;;5.10;93.50;12.50;99898.00;;;;5046331;28;20226;-68
2020/12/22 07:37:52;;;;;;;12.30;9.45;;;5.10;93.60;12.50;99840.00;;;;5029247;28;20605;-68
2020/12/22 07:40:18;;;;;;;11.05;9.13;;;5.10;93.60;12.70;99934.00;;;;5045938;28;20257;-68
2020/12/22 07:42:44;;;;;;;11.97;8.33;;;5.10;93.60;12.70;99913.00;;;;5029279;28;20647;-68
2020/12/22 07:45:10;;;;;;;11.10;9.48;;;5.10;93.60;12.70;99905.00;;;;5045734;28;20217;-68
2020/12/22 07:47:36;;;;;;;12.33;8.83;;;5.10;93.60;12.60;99908.00;;;;5028972;28;20285;-68
2020/12/22 07:50:12;;;;;;;11.03;9.20;;;5.10;93.70;12.30;99904.00;;;;5045979;28;20523;-69
2020/12/22 07:52:38;;;;;;;12.95;8.25;;;5.10;93.70;12.60;99925.00;;;;5029179;28;20691;-68
2020/12/22 07:55:04;;;;;;;11.23;8.97;;;5.10;93.70;12.60;99924.00;;;;5028855;28;20191;-69
2020/12/22 07:57:30;;;;;;;10.97;8.50;;;5.10;93.70;12.70;99930.00;;;;5028551;28;20245;-68
2020/12/22 08:00:07;;;;;;;13.63;10.20;;;5.20;93.80;12.60;99913.00;;;;5045852;28;20177;-68
2020/12/22 08:02:33;;;;;;;10.70;7.68;;;5.10;93.70;12.60;99886.00;;;;5029502;28;20205;-68
2020/12/22 08:05:12;;;;;;;11.73;9.27;;;5.10;93.80;12.60;99893.00;;;;5008621;28;20210;-68
2020/12/22 08:07:42;;;;;;;12.18;8.70;;;5.10;93.80;12.60;99884.00;;;;5031807;28;20570;-68
2020/12/22 08:10:09;;;;;;;13.02;10.07;;;5.10;93.80;12.50;99905.00;;;;5013256;28;20665;-68
2020/12/22 08:12:35;;;;;;;11.82;9.23;;;5.20;94.20;12.60;99912.00;;;;4995702;28;20229;-69
2020/12/22 08:15:01;;;;;;;12.68;9.73;;;5.20;93.90;12.60;99922.00;;;;5012016;28;20197;-69
2020/12/22 08:17:27;;;;;;;12.23;10.10;;;5.10;93.90;12.50;99928.00;;;;5011492;28;20207;-68
2020/12/22 08:19:53;;;;;;;11.38;8.75;;;5.10;93.90;12.70;99921.00;;;;5010518;28;20202;-69
2020/12/22 08:22:19;;;;;;;14.10;10.30;;;5.20;93.90;12.60;99912.00;;;;4994671;28;20592;-68
2020/12/22 08:24:44;;;;;;;12.17;9.60;;;5.20;93.90;12.60;99912.00;;;;5011579;28;20206;-68
2020/12/22 08:27:11;;;;;;;10.90;8.90;;;5.20;93.90;12.70;99909.00;;;;4995283;28;20203;-68
2020/12/22 08:29:42;;;;;;;12.95;9.23;;;5.10;93.80;12.40;99908.00;;;;4995428;28;20229;-68
2020/12/22 08:32:07;;;;;;;13.15;11.35;;;5.10;93.90;12.70;99914.00;;;;4996873;28;20301;-68
2020/12/22 08:34:33;;;;;;;12.83;9.40;;;5.20;93.90;12.60;99911.00;;;;5027219;28;20257;-68
2020/12/22 08:37:09;;;;;;;12.43;10.33;;;5.10;93.90;12.60;99912.00;;;;5029017;28;20234;-68
2020/12/22 08:39:39;;;;;;;14.30;8.88;;;5.10;93.90;12.70;99917.00;;;;5011115;28;20190;-68
2020/12/22 08:42:07;;;;;;;12.85;9.65;;;5.10;93.90;12.60;99919.00;;;;5029180;28;20217;-68
2020/12/22 08:44:33;;;;;;;14.23;10.52;;;5.20;94.00;12.70;99924.00;;;;5011943;28;20507;-68
2020/12/22 08:47:10;;;;;;;14.53;10.90;;;5.20;94.00;12.70;99929.00;;;;5012423;28;20223;-68
2020/12/22 08:49:35;;;;;;;12.75;9.77;;;5.10;94.00;12.80;99912.00;;;;5028336;28;20170;-68
2020/12/22 08:52:14;;;;;;;16.50;9.60;;;5.20;94.40;12.70;99922.00;;;;5029775;28;20629;-68
2020/12/22 08:54:42;;;;;;;12.48;10.23;;;5.20;94.00;12.80;99916.00;;;;5029128;28;20214;-68
2020/12/22 08:57:15;;;;;;;14.10;11.15;;;5.20;94.00;12.80;99931.00;;;;4996633;28;20206;-67
2020/12/22 08:59:40;;;;;;;11.85;9.95;;;5.20;94.10;12.70;99919.00;;;;5028405;28;20179;-68
2020/12/22 09:02:12;;;;;;;14.27;10.70;;;5.20;94.10;12.70;99912.00;;;;5011237;28;20194;-67
2020/12/22 09:04:38;;;;;;;14.38;10.73;;;5.20;94.10;12.60;99902.00;;;;4996742;28;20194;-67
2020/12/22 09:07:10;;;;;;;15.30;10.73;;;5.20;94.00;12.60;99902.00;;;;5029498;28;20206;-68
2020/12/22 09:09:36;;;;;;;13.52;11.35;;;5.20;94.10;12.70;99902.00;;;;4979916;28;20294;-68
2020/12/22 09:12:03;;;;;;;14.20;11.10;;;5.20;94.10;12.80;99913.00;;;;5028181;28;20709;-68
2020/12/22 09:14:50;;;;;;;13.45;11.70;;;5.20;94.10;12.60;99895.00;;;;5029023;28;20174;-67
2020/12/22 09:17:30;;;;;;;15.75;11.30;;;5.20;94.10;12.80;99909.00;;;;5001611;28;20612;-67
2020/12/22 09:19:56;;;;;;;15.20;10.88;;;5.20;94.20;12.80;99898.00;;;;5033077;28;20189;-68
2020/12/22 09:22:33;;;;;;;14.00;11.43;;;5.20;94.20;12.80;99902.00;;;;5015339;28;20199;-68
2020/12/22 09:25:00;;;;;;;13.90;11.05;;;5.20;94.20;12.70;99902.00;;;;5000594;28;20629;-67
2020/12/22 09:27:39;;;;;;;15.25;12.18;;;5.20;94.20;12.70;99901.00;;;;4999095;28;20205;-68
2020/12/22 09:30:07;;;;;;;15.60;11.77;;;5.20;94.10;12.80;99887.00;;;;5015145;28;20209;-67
2020/12/22 09:32:32;;;;;;;16.35;11.05;;;5.20;94.20;12.80;99877.00;;;;5015387;28;20564;-68
2020/12/22 09:34:58;;;;;;;18.10;12.53;;;5.20;94.20;12.70;99880.00;;;;5015533;28;20241;-68
2020/12/22 09:37:25;;;;;;;13.70;10.83;;;5.20;94.20;12.70;99883.00;;;;5031836;28;20227;-67
2020/12/22 09:39:51;;;;;;;14.95;11.57;;;5.20;94.10;12.80;99863.00;;;;5015118;28;20183;-68
2020/12/22 09:42:18;;;;;;;16.58;11.43;;;5.20;94.20;12.80;99858.00;;;;4999259;28;20234;-68
2020/12/22 09:44:44;;;;;;;14.77;11.05;;;5.20;94.10;12.80;99863.00;;;;5015406;28;20225;-67
2020/12/22 09:47:09;;;;;;;17.10;12.90;;;5.20;94.20;12.70;99876.00;;;;5031200;28;20708;-67
2020/12/22 09:49:35;;;;;;;13.97;10.67;;;5.20;94.20;12.70;99855.00;;;;5015109;28;20236;-67
2020/12/22 09:52:01;;;;;;;14.57;11.20;;;5.20;94.20;12.80;99864.00;;;;4998937;28;20257;-68
2020/12/22 09:54:27;;;;;;;13.30;10.87;;;5.20;94.20;12.70;99853.00;;;;5014148;28;20277;-67
2020/12/22 09:56:52;;;;;;;15.23;11.60;;;5.20;94.20;12.80;99859.00;;;;5014810;28;20214;-67
2020/12/22 09:59:18;;;;;;;14.83;11.10;;;5.20;94.20;12.80;99868.00;;;;5031478;28;20205;-69
2020/12/22 10:01:44;;;;;;;15.83;10.93;;;5.20;94.20;12.80;99871.00;;;;5031092;28;20206;-68
2020/12/22 10:04:11;;;;;;;13.45;11.18;;;5.20;94.30;12.80;99851.00;;;;5030980;28;20437;-68
2020/12/22 10:06:37;;;;;;;17.83;12.48;;;5.20;94.20;12.70;99835.00;;;;4998294;28;20215;-68
2020/12/22 10:09:03;;;;;;;15.77;11.90;;;5.20;94.30;12.80;99847.00;;;;5030730;28;20297;-69
2020/12/22 10:11:31;;;;;;;15.48;11.15;;;5.20;94.70;12.70;99848.00;;;;5030978;28;20839;-67
2020/12/22 10:13:57;;;;;;;15.23;12.38;;;5.20;94.30;12.50;99857.00;;;;4999019;28;20712;-68
2020/12/22 10:16:23;;;;;;;16.00;12.27;;;5.20;94.30;12.50;99828.00;;;;5014260;28;20329;-68
2020/12/22 10:18:49;;;;;;;15.27;11.93;;;5.20;94.20;12.60;99837.00;;;;5030898;28;20182;-68
2020/12/22 10:21:18;;;;;;;17.85;11.90;;;5.20;94.30;12.60;99829.00;;;;4997924;28;20918;-68
2020/12/22 10:23:44;;;;;;;13.68;11.30;;;5.20;94.30;12.60;99833.00;;;;5014441;28;20186;-68
2020/12/22 10:26:12;;;;;;;15.35;11.20;;;5.20;94.30;12.60;99834.00;;;;5014786;28;20210;-68
2020/12/22 10:28:40;;;;;;;14.43;11.50;;;5.20;94.30;12.60;99832.00;;;;5013772;28;20178;-68
2020/12/22 10:31:06;;;;;;;14.85;10.88;;;5.20;94.30;12.60;99838.00;;;;4998254;28;20186;-67
2020/12/22 10:33:32;;;;;;;13.68;10.60;;;5.20;94.40;12.50;99830.00;;;;5030233;28;20680;-68
2020/12/22 10:35:58;;;;;;;15.00;11.63;;;5.20;94.40;12.70;99809.00;;;;5030595;28;20231;-68
2020/12/22 10:38:23;;;;;;;16.13;11.33;;;5.20;94.40;12.70;99808.00;;;;5030812;28;20769;-69
2020/12/22 10:40:49;;;;;;;13.97;11.20;;;5.20;94.40;12.70;99803.00;;;;5013826;28;20190;-68
2020/12/22 10:43:15;;;;;;;16.33;11.57;;;5.20;94.40;12.60;99791.00;;;;5030694;28;20515;-68
2020/12/22 10:45:41;;;;;;;14.00;12.40;;;5.20;94.40;12.60;99794.00;;;;5013305;28;20222;-68
2020/12/22 10:48:07;;;;;;;15.10;11.20;;;5.20;94.50;12.70;99802.00;;;;5030420;28;20438;-68